createdAt,value
2017-12-17T00:00:45.052Z,5.70
2017-12-17T00:01:48.339Z,5.55
2017-12-17T00:02:51.640Z,5.75
2017-12-17T00:03:54.196Z,5.82
2017-12-17T00:04:56.756Z,6.68
2017-12-17T00:06:00.034Z,5.90
2017-12-17T00:07:03.309Z,5.87
2017-12-17T00:08:06.629Z,5.80
2017-12-17T00:09:09.140Z,5.40
2017-12-17T00:10:11.658Z,5.90
2017-12-17T00:11:14.205Z,5.90
2017-12-17T00:12:17.488Z,6.37
2017-12-17T00:13:20.815Z,6.32
2017-12-17T00:14:23.334Z,6.60
2017-12-17T00:15:25.845Z,5.37
2017-12-17T00:16:28.353Z,5.90
2017-12-17T00:17:31.633Z,5.78
2017-12-17T00:18:34.181Z,7.00
2017-12-17T00:19:36.709Z,6.05
2017-12-17T00:20:39.261Z,6.90
2017-12-17T00:21:41.782Z,5.95
2017-12-17T00:22:44.403Z,6.45
2017-12-17T00:23:46.945Z,5.60
2017-12-17T00:24:50.254Z,6.82
2017-12-17T00:25:52.763Z,6.05
2017-12-17T00:26:55.284Z,6.35
2017-12-17T00:27:57.798Z,6.40
2017-12-17T00:29:00.310Z,5.85
2017-12-17T00:30:02.857Z,6.35
2017-12-17T00:31:06.146Z,5.55
2017-12-17T00:32:09.427Z,6.45
2017-12-17T00:33:12.713Z,6.55
2017-12-17T00:34:16.026Z,6.15
2017-12-17T00:35:18.585Z,5.90
2017-12-17T00:36:21.096Z,6.03
2017-12-17T00:37:23.725Z,6.45
2017-12-17T00:38:26.250Z,6.05
2017-12-17T00:39:29.530Z,6.37
2017-12-17T00:40:32.093Z,5.50
2017-12-17T00:41:34.630Z,5.80
2017-12-17T00:42:37.154Z,6.22
2017-12-17T00:43:39.678Z,6.12
2017-12-17T00:44:42.206Z,6.85
2017-12-17T00:45:44.770Z,6.18
2017-12-17T00:46:47.294Z,6.97
2017-12-17T00:47:49.855Z,6.35
2017-12-17T00:48:52.373Z,5.90
2017-12-17T00:49:54.950Z,6.40
2017-12-17T00:50:57.493Z,6.43
2017-12-17T00:52:00.005Z,5.95
2017-12-17T00:53:02.515Z,6.43
2017-12-17T00:54:05.071Z,8.00
2017-12-17T00:56:17.337Z,8.30
2017-12-17T00:57:19.853Z,6.93
2017-12-17T00:58:22.378Z,7.35
2017-12-17T00:59:24.936Z,7.20
2017-12-17T01:00:27.559Z,7.22
2017-12-17T01:01:30.092Z,7.40
2017-12-17T01:02:33.430Z,7.12
2017-12-17T01:03:35.949Z,7.65
2017-12-17T01:04:39.261Z,7.30
2017-12-17T01:05:41.783Z,6.68
2017-12-17T01:06:44.332Z,7.28
2017-12-17T01:07:46.843Z,7.12
2017-12-17T01:08:49.354Z,6.87
2017-12-17T01:09:51.874Z,6.78
2017-12-17T01:10:54.422Z,6.10
2017-12-17T01:11:57.746Z,6.90
2017-12-17T01:13:00.270Z,7.12
2017-12-17T01:14:03.553Z,6.72
2017-12-17T01:15:06.871Z,6.72
2017-12-17T01:16:09.405Z,7.10
2017-12-17T01:17:12.758Z,6.80
2017-12-17T01:18:16.046Z,6.95
2017-12-17T01:19:18.565Z,7.40
2017-12-17T01:20:21.086Z,6.62
2017-12-17T01:21:23.606Z,6.32
2017-12-17T01:22:26.156Z,6.60
2017-12-17T01:23:29.438Z,6.62
2017-12-17T01:24:32.721Z,7.05
2017-12-17T01:25:36.006Z,7.00
2017-12-17T01:26:38.518Z,6.90
2017-12-17T01:27:41.062Z,6.55
2017-12-17T01:28:43.582Z,6.53
2017-12-17T01:29:46.102Z,6.50
2017-12-17T01:30:48.665Z,6.60
2017-12-17T01:31:51.184Z,6.30
2017-12-17T01:32:54.476Z,6.60
2017-12-17T01:33:57.767Z,6.70
2017-12-17T01:35:00.290Z,6.18
2017-12-17T01:36:03.686Z,6.70
2017-12-17T01:37:07.020Z,6.95
2017-12-17T01:38:09.536Z,6.55
2017-12-17T01:39:12.096Z,6.70
2017-12-17T01:40:14.621Z,6.68
2017-12-17T01:41:17.137Z,7.15
2017-12-17T01:42:19.697Z,6.25
2017-12-17T01:43:22.274Z,6.87
2017-12-17T01:44:24.755Z,6.97
2017-12-17T01:45:28.170Z,7.20
2017-12-17T01:46:30.689Z,6.22
2017-12-17T01:47:33.224Z,7.35
2017-12-17T01:48:35.746Z,7.25
2017-12-17T01:49:39.060Z,6.30
2017-12-17T01:50:41.609Z,6.40
2017-12-17T01:51:44.179Z,7.07
2017-12-17T01:52:46.701Z,6.60
2017-12-17T01:53:49.215Z,7.05
2017-12-17T01:54:51.738Z,6.40
2017-12-17T01:55:54.247Z,6.90
2017-12-17T01:56:56.793Z,6.40
2017-12-17T01:58:00.101Z,6.00
2017-12-17T01:59:02.620Z,7.10
2017-12-17T02:00:05.133Z,6.43
2017-12-17T02:01:07.646Z,7.15
2017-12-17T02:02:10.161Z,8.25
2017-12-17T02:03:12.717Z,7.10
2017-12-17T02:04:15.230Z,6.50
2017-12-17T02:05:17.761Z,6.85
2017-12-17T02:06:20.283Z,6.75
2017-12-17T02:07:22.800Z,6.50
2017-12-17T02:08:25.456Z,7.00
2017-12-17T02:09:28.737Z,6.55
2017-12-17T02:10:31.996Z,6.35
2017-12-17T02:11:35.292Z,7.45
2017-12-17T02:12:37.807Z,6.35
2017-12-17T02:13:40.377Z,6.75
2017-12-17T02:14:42.948Z,6.95
2017-12-17T02:15:45.466Z,6.60
2017-12-17T02:16:47.985Z,6.25
2017-12-17T02:17:50.502Z,7.03
2017-12-17T02:18:53.067Z,6.12
2017-12-17T02:19:55.616Z,6.40
2017-12-17T02:20:58.909Z,6.97
2017-12-17T02:22:01.432Z,6.70
2017-12-17T02:23:03.946Z,6.78
2017-12-17T02:24:06.478Z,6.45
2017-12-17T02:25:09.041Z,6.90
2017-12-17T02:26:11.556Z,6.90
2017-12-17T02:27:14.070Z,6.87
2017-12-17T02:28:16.586Z,6.80
2017-12-17T02:29:19.097Z,6.03
2017-12-17T02:30:21.666Z,7.78
2017-12-17T02:31:24.200Z,6.00
2017-12-17T02:32:26.722Z,5.80
2017-12-17T02:33:30.002Z,6.43
2017-12-17T02:34:33.298Z,6.47
2017-12-17T02:35:35.853Z,6.50
2017-12-17T02:36:39.145Z,6.80
2017-12-17T02:37:42.474Z,6.87
2017-12-17T02:38:44.985Z,6.47
2017-12-17T02:39:48.264Z,7.05
2017-12-17T02:40:51.544Z,7.18
2017-12-17T02:41:54.061Z,6.32
2017-12-17T02:42:56.608Z,7.10
2017-12-17T02:43:59.139Z,5.97
2017-12-17T02:45:01.678Z,7.47
2017-12-17T02:46:04.206Z,6.50
2017-12-17T02:47:06.762Z,6.85
2017-12-17T02:48:09.283Z,6.30
2017-12-17T02:49:12.561Z,5.60
2017-12-17T02:50:15.075Z,6.20
2017-12-17T02:51:17.622Z,6.70
2017-12-17T02:52:20.922Z,6.20
2017-12-17T02:53:23.443Z,5.85
2017-12-17T02:54:25.967Z,5.40
2017-12-17T02:55:28.513Z,5.70
2017-12-17T02:56:31.804Z,6.32
2017-12-17T02:57:35.085Z,6.05
2017-12-17T02:58:38.362Z,5.53
2017-12-17T02:59:40.933Z,6.03
2017-12-17T03:00:44.249Z,6.30
2017-12-17T03:01:46.766Z,5.40
2017-12-17T03:02:49.274Z,5.87
2017-12-17T03:03:51.788Z,6.15
2017-12-17T03:04:54.338Z,5.87
2017-12-17T03:05:56.898Z,5.50
2017-12-17T03:06:59.434Z,5.85
2017-12-17T03:08:01.982Z,6.45
2017-12-17T03:09:05.266Z,6.28
2017-12-17T03:10:08.544Z,5.65
2017-12-17T03:11:11.866Z,6.10
2017-12-17T03:12:14.382Z,6.03
2017-12-17T03:13:16.889Z,6.20
2017-12-17T03:14:19.404Z,6.37
2017-12-17T03:15:21.945Z,6.07
2017-12-17T03:16:24.457Z,6.30
2017-12-17T03:17:27.776Z,5.32
2017-12-17T03:18:30.297Z,5.70
2017-12-17T03:19:33.578Z,6.28
2017-12-17T03:20:36.143Z,4.87
2017-12-17T03:21:39.432Z,5.25
2017-12-17T03:22:42.717Z,5.18
2017-12-17T03:23:46.031Z,5.87
2017-12-17T03:24:48.544Z,5.05
2017-12-17T03:25:51.068Z,5.00
2017-12-17T03:26:53.615Z,6.10
2017-12-17T03:27:56.897Z,5.30
2017-12-17T03:28:59.445Z,5.45
2017-12-17T03:30:01.970Z,5.50
2017-12-17T03:31:04.490Z,5.53
2017-12-17T03:32:07.833Z,5.68
2017-12-17T03:33:10.376Z,5.43
2017-12-17T03:34:12.890Z,5.40
2017-12-17T03:35:16.178Z,4.85
2017-12-17T03:36:18.698Z,5.95
2017-12-17T03:37:21.265Z,5.07
2017-12-17T03:38:23.773Z,4.60
2017-12-17T03:39:26.293Z,5.10
2017-12-17T03:40:28.845Z,5.00
2017-12-17T03:41:31.432Z,5.00
2017-12-17T03:42:33.953Z,5.25
2017-12-17T03:43:37.237Z,5.82
2017-12-17T03:44:40.545Z,5.37
2017-12-17T03:45:43.062Z,5.15
2017-12-17T03:46:45.635Z,5.28
2017-12-17T03:47:48.178Z,5.70
2017-12-17T03:48:50.694Z,5.45
2017-12-17T03:49:53.209Z,4.75
2017-12-17T03:50:55.727Z,5.45
2017-12-17T03:51:58.305Z,5.22
2017-12-17T03:53:00.874Z,4.80
2017-12-17T03:54:03.398Z,5.70
2017-12-17T03:55:05.921Z,4.70
2017-12-17T03:56:08.449Z,4.45
2017-12-17T03:57:11.730Z,5.37
2017-12-17T03:58:15.054Z,5.15
2017-12-17T03:59:17.573Z,4.90
2017-12-17T04:00:20.845Z,4.40
2017-12-17T04:01:23.357Z,5.07
2017-12-17T04:02:25.869Z,5.37
2017-12-17T04:03:28.429Z,4.57
2017-12-17T04:04:31.002Z,4.18
2017-12-17T04:05:33.514Z,4.70
2017-12-17T04:06:36.026Z,5.10
2017-12-17T04:07:38.546Z,5.00
2017-12-17T04:08:41.083Z,6.03
2017-12-17T04:09:44.396Z,5.57
2017-12-17T04:10:46.913Z,4.65
2017-12-17T04:11:49.462Z,5.12
2017-12-17T04:12:51.989Z,4.60
2017-12-17T04:13:54.553Z,6.05
2017-12-17T04:14:57.068Z,6.00
2017-12-17T04:15:59.586Z,4.80
2017-12-17T04:17:02.112Z,6.50
2017-12-17T04:18:04.634Z,5.50
2017-12-17T04:19:07.176Z,4.68
2017-12-17T04:20:10.499Z,5.47
2017-12-17T04:21:13.016Z,6.07
2017-12-17T04:22:16.308Z,5.57
2017-12-17T04:23:19.585Z,5.90
2017-12-17T04:24:22.865Z,5.50
2017-12-17T04:25:26.196Z,5.47
2017-12-17T04:26:28.700Z,5.90
2017-12-17T04:27:31.205Z,6.37
2017-12-17T04:28:33.722Z,5.68
2017-12-17T04:29:36.225Z,5.15
2017-12-17T04:30:38.773Z,6.22
2017-12-17T04:31:42.096Z,6.55
2017-12-17T04:32:44.616Z,6.50
2017-12-17T04:33:47.153Z,6.05
2017-12-17T04:34:49.673Z,6.78
2017-12-17T04:35:52.189Z,5.97
2017-12-17T04:36:55.505Z,5.93
2017-12-17T04:37:58.786Z,6.65
2017-12-17T04:39:02.070Z,6.15
2017-12-17T04:40:05.355Z,6.35
2017-12-17T04:41:08.640Z,6.07
2017-12-17T04:42:11.958Z,6.40
2017-12-17T04:43:14.485Z,5.28
2017-12-17T04:44:16.998Z,6.57
2017-12-17T04:45:19.504Z,6.80
2017-12-17T04:46:22.036Z,6.05
2017-12-17T04:47:24.684Z,5.97
2017-12-17T04:48:27.197Z,5.93
2017-12-17T04:49:29.708Z,7.22
2017-12-17T04:50:32.243Z,6.10
2017-12-17T04:51:34.754Z,6.40
2017-12-17T04:52:37.317Z,6.03
2017-12-17T04:53:39.833Z,6.03
2017-12-17T04:54:42.345Z,6.57
2017-12-17T04:55:44.867Z,6.50
2017-12-17T04:56:47.393Z,7.43
2017-12-17T04:57:50.205Z,6.20
2017-12-17T04:58:52.716Z,6.93
2017-12-17T04:59:55.273Z,6.72
2017-12-17T05:00:57.785Z,6.65
2017-12-17T05:02:00.297Z,6.68
2017-12-17T05:03:02.810Z,6.22
2017-12-17T05:04:05.330Z,6.47
2017-12-17T05:05:07.881Z,6.70
2017-12-17T05:06:11.173Z,6.37
2017-12-17T05:07:14.461Z,6.47
2017-12-17T05:08:17.753Z,5.90
2017-12-17T05:09:20.267Z,6.12
2017-12-17T05:10:22.808Z,6.97
2017-12-17T05:11:25.361Z,6.53
2017-12-17T05:12:27.885Z,7.25
2017-12-17T05:13:30.441Z,6.80
2017-12-17T05:14:32.967Z,6.43
2017-12-17T05:15:35.472Z,6.65
2017-12-17T05:16:37.986Z,6.80
2017-12-17T05:17:40.505Z,6.70
2017-12-17T05:18:43.045Z,7.20
2017-12-17T05:19:45.597Z,7.00
2017-12-17T05:20:48.120Z,7.90
2017-12-17T05:21:51.553Z,7.40
2017-12-17T05:22:54.067Z,6.85
2017-12-17T05:23:56.610Z,7.30
2017-12-17T05:24:59.185Z,7.82
2017-12-17T05:26:01.707Z,7.80
2017-12-17T05:27:04.237Z,7.95
2017-12-17T05:28:07.516Z,8.10
2017-12-17T05:29:10.025Z,7.35
2017-12-17T05:30:12.581Z,8.80
2017-12-17T05:31:15.093Z,7.95
2017-12-17T05:32:17.636Z,8.27
2017-12-17T05:33:20.220Z,9.40
2017-12-17T05:34:22.749Z,8.40
2017-12-17T05:35:25.301Z,8.57
2017-12-17T05:36:28.582Z,7.78
2017-12-17T05:37:31.866Z,8.60
2017-12-17T05:38:35.140Z,9.43
2017-12-17T05:39:38.438Z,8.00
2017-12-17T05:40:40.993Z,9.32
2017-12-17T05:41:44.273Z,9.82
2017-12-17T05:42:47.592Z,9.35
2017-12-17T05:43:50.107Z,9.10
2017-12-17T05:44:52.633Z,9.50
2017-12-17T05:45:55.196Z,10.75
2017-12-17T05:46:57.740Z,10.00
2017-12-17T05:48:00.254Z,9.30
2017-12-17T05:49:02.806Z,10.00
2017-12-17T05:50:05.317Z,9.38
2017-12-17T05:51:08.641Z,10.43
2017-12-17T05:52:11.174Z,10.48
2017-12-17T05:53:14.460Z,9.95
2017-12-17T05:54:17.762Z,9.30
2017-12-17T05:55:20.308Z,9.60
2017-12-17T05:56:23.641Z,10.05
2017-12-17T05:57:26.164Z,10.18
2017-12-17T05:58:28.709Z,9.90
2017-12-17T05:59:31.233Z,9.80
2017-12-17T06:00:33.766Z,9.73
2017-12-17T06:01:36.321Z,9.60
2017-12-17T06:02:39.641Z,9.75
2017-12-17T06:03:42.156Z,9.52
2017-12-17T06:04:44.665Z,9.85
2017-12-17T06:05:47.177Z,10.40
2017-12-17T06:06:49.714Z,10.23
2017-12-17T06:07:52.262Z,10.82
2017-12-17T06:08:54.788Z,10.63
2017-12-17T06:09:58.086Z,10.68
2017-12-17T06:11:01.373Z,10.05
2017-12-17T06:12:04.657Z,9.75
2017-12-17T06:13:07.969Z,9.93
2017-12-17T06:14:10.591Z,9.02
2017-12-17T06:15:13.881Z,9.40
2017-12-17T06:16:17.165Z,9.05
2017-12-17T06:17:20.486Z,9.85
2017-12-17T06:18:23.079Z,9.05
2017-12-17T06:19:25.632Z,8.35
2017-12-17T06:20:28.159Z,8.27
2017-12-17T06:21:31.453Z,8.95
2017-12-17T06:22:34.009Z,8.35
2017-12-17T06:23:37.296Z,8.45
2017-12-17T06:24:40.585Z,8.07
2017-12-17T06:25:43.138Z,8.45
2017-12-17T06:26:46.426Z,8.48
2017-12-17T06:27:49.710Z,7.93
2017-12-17T06:28:53.017Z,8.57
2017-12-17T06:29:55.631Z,8.65
2017-12-17T06:30:58.145Z,8.60
2017-12-17T06:32:00.671Z,8.10
2017-12-17T06:33:03.181Z,7.35
2017-12-17T06:34:05.724Z,7.68
2017-12-17T06:35:08.997Z,8.43
2017-12-17T06:36:12.286Z,8.05
2017-12-17T06:37:15.563Z,7.60
2017-12-17T06:38:18.849Z,8.25
2017-12-17T06:39:21.405Z,7.85
2017-12-17T06:40:24.694Z,7.47
2017-12-17T06:41:27.246Z,8.68
2017-12-17T06:42:29.762Z,8.10
2017-12-17T06:43:32.282Z,8.88
2017-12-17T06:45:43.689Z,7.97
2017-12-17T06:46:46.205Z,8.57
2017-12-17T06:47:48.749Z,8.57
2017-12-17T06:48:51.261Z,8.25
2017-12-17T06:49:53.794Z,8.70
2017-12-17T06:50:56.304Z,8.95
2017-12-17T06:51:59.626Z,8.82
2017-12-17T06:53:02.153Z,8.50
2017-12-17T06:54:05.442Z,9.32
2017-12-17T06:55:08.725Z,9.70
2017-12-17T06:56:12.043Z,9.00
2017-12-17T06:57:14.597Z,7.85
2017-12-17T06:58:17.160Z,8.85
2017-12-17T06:59:19.669Z,8.52
2017-12-17T07:00:22.954Z,8.90
2017-12-17T07:01:26.241Z,9.38
2017-12-17T07:02:28.761Z,8.38
2017-12-17T07:03:31.305Z,8.65
2017-12-17T07:04:34.586Z,8.27
2017-12-17T07:05:37.104Z,8.30
2017-12-17T07:06:39.613Z,9.60
2017-12-17T07:07:42.130Z,9.15
2017-12-17T07:08:44.685Z,8.02
2017-12-17T07:09:47.196Z,8.77
2017-12-17T07:10:49.706Z,9.20
2017-12-17T07:11:52.238Z,8.52
2017-12-17T07:12:54.759Z,8.32
2017-12-17T07:13:57.317Z,9.35
2017-12-17T07:14:59.841Z,8.35
2017-12-17T07:16:03.131Z,8.30
2017-12-17T07:17:06.460Z,8.10
2017-12-17T07:18:08.978Z,9.10
2017-12-17T07:19:12.315Z,8.90
2017-12-17T07:20:14.832Z,10.30
2017-12-17T07:21:18.146Z,8.55
2017-12-17T07:22:20.693Z,8.45
2017-12-17T07:23:23.217Z,8.00
2017-12-17T07:24:25.733Z,8.80
2017-12-17T07:25:28.254Z,8.15
2017-12-17T07:26:30.778Z,8.98
2017-12-17T07:27:33.325Z,8.38
2017-12-17T07:28:35.838Z,8.30
2017-12-17T07:29:38.351Z,8.48
2017-12-17T07:30:41.628Z,8.00
2017-12-17T07:31:44.925Z,7.75
2017-12-17T07:32:48.238Z,8.85
2017-12-17T07:33:50.789Z,7.32
2017-12-17T07:34:53.309Z,7.87
2017-12-17T07:35:55.926Z,7.85
2017-12-17T07:36:58.441Z,7.90
2017-12-17T07:38:00.954Z,7.05
2017-12-17T07:39:03.508Z,7.12
2017-12-17T07:40:06.021Z,7.45
2017-12-17T07:41:08.544Z,7.75
2017-12-17T07:42:11.066Z,6.62
2017-12-17T07:43:13.589Z,7.05
2017-12-17T07:44:16.150Z,6.55
2017-12-17T07:45:18.682Z,7.37
2017-12-17T07:46:21.196Z,7.15
2017-12-17T07:47:24.473Z,7.28
2017-12-17T07:48:26.984Z,8.05
2017-12-17T07:49:29.520Z,6.90
2017-12-17T07:50:32.080Z,7.80
2017-12-17T07:51:34.592Z,7.80
2017-12-17T07:52:37.876Z,7.82
2017-12-17T07:53:40.385Z,8.55
2017-12-17T07:54:42.899Z,7.80
2017-12-17T07:55:45.461Z,7.93
2017-12-17T07:56:47.978Z,7.75
2017-12-17T07:57:50.493Z,7.80
2017-12-17T07:58:53.006Z,7.80
2017-12-17T07:59:55.520Z,8.60
2017-12-17T08:00:58.074Z,8.30
2017-12-17T08:02:00.725Z,8.23
2017-12-17T08:03:03.241Z,8.15
2017-12-17T08:04:06.520Z,7.82
2017-12-17T08:05:09.033Z,9.00
2017-12-17T08:06:11.591Z,8.15
2017-12-17T08:07:14.112Z,7.85
2017-12-17T08:08:16.626Z,8.63
2017-12-17T08:09:19.184Z,8.43
2017-12-17T08:10:21.711Z,8.40
2017-12-17T08:11:24.238Z,8.57
2017-12-17T08:12:26.787Z,8.32
2017-12-17T08:13:29.333Z,7.95
2017-12-17T08:14:32.609Z,7.57
2017-12-17T08:15:35.937Z,7.60
2017-12-17T08:16:38.501Z,6.97
2017-12-17T08:17:41.018Z,8.48
2017-12-17T08:18:44.302Z,7.95
2017-12-17T08:19:46.873Z,8.30
2017-12-17T08:20:50.154Z,7.70
2017-12-17T08:21:53.441Z,8.60
2017-12-17T08:22:56.752Z,7.90
2017-12-17T08:23:59.268Z,7.72
2017-12-17T08:25:01.813Z,7.45
2017-12-17T08:26:04.327Z,9.00
2017-12-17T08:27:07.605Z,8.15
2017-12-17T08:28:10.894Z,7.82
2017-12-17T08:29:14.213Z,8.18
2017-12-17T08:30:16.793Z,7.87
2017-12-17T08:31:19.306Z,8.00
2017-12-17T08:32:22.622Z,7.37
2017-12-17T08:33:25.138Z,7.72
2017-12-17T08:34:27.662Z,8.20
2017-12-17T08:35:30.173Z,7.72
2017-12-17T08:36:32.681Z,7.90
2017-12-17T08:37:35.239Z,9.10
2017-12-17T08:38:37.767Z,8.55
2017-12-17T08:39:40.381Z,8.48
2017-12-17T08:40:42.894Z,7.43
2017-12-17T08:41:45.406Z,8.23
2017-12-17T08:42:47.941Z,7.80
2017-12-17T08:43:50.453Z,7.20
2017-12-17T08:44:53.041Z,8.25
2017-12-17T08:45:55.555Z,7.47
2017-12-17T08:46:58.835Z,8.30
2017-12-17T08:48:02.297Z,8.23
2017-12-17T08:49:04.810Z,8.23
2017-12-17T08:50:07.354Z,8.60
2017-12-17T08:51:10.632Z,8.32
2017-12-17T08:52:13.925Z,6.80
2017-12-17T08:53:17.213Z,7.43
2017-12-17T08:54:20.512Z,8.25
2017-12-17T08:55:23.103Z,8.32
2017-12-17T08:56:26.408Z,7.80
2017-12-17T08:57:28.921Z,8.60
2017-12-17T08:58:31.430Z,8.43
2017-12-17T08:59:33.949Z,7.75
2017-12-17T09:00:36.494Z,8.05
2017-12-17T09:01:39.770Z,8.13
2017-12-17T09:02:42.309Z,7.87
2017-12-17T09:03:44.946Z,7.50
2017-12-17T09:04:47.464Z,7.40
2017-12-17T09:05:50.001Z,7.43
2017-12-17T09:06:52.558Z,7.60
2017-12-17T09:07:55.071Z,6.80
2017-12-17T09:08:57.590Z,7.55
2017-12-17T09:10:00.106Z,7.78
2017-12-17T09:11:03.405Z,7.00
2017-12-17T09:12:05.998Z,7.50
2017-12-17T09:13:09.261Z,7.47
2017-12-17T09:14:12.577Z,6.85
2017-12-17T09:15:15.237Z,7.35
2017-12-17T09:16:17.757Z,6.53
2017-12-17T09:17:20.266Z,6.70
2017-12-17T09:18:22.891Z,7.65
2017-12-17T09:19:25.420Z,7.10
2017-12-17T09:20:27.971Z,6.70
2017-12-17T09:21:30.480Z,7.50
2017-12-17T09:22:32.980Z,7.07
2017-12-17T09:23:35.566Z,6.80
2017-12-17T09:24:38.082Z,6.75
2017-12-17T09:25:40.598Z,6.35
2017-12-17T09:26:43.117Z,6.50
2017-12-17T09:27:45.626Z,6.70
2017-12-17T09:28:48.193Z,6.20
2017-12-17T09:29:50.742Z,6.50
2017-12-17T09:30:53.277Z,6.00
2017-12-17T09:31:55.786Z,7.75
2017-12-17T09:32:58.301Z,5.45
2017-12-17T09:34:00.820Z,7.57
2017-12-17T09:35:03.345Z,7.10
2017-12-17T09:36:05.966Z,5.65
2017-12-17T09:37:08.520Z,5.25
2017-12-17T09:38:11.041Z,4.75
2017-12-17T09:39:13.555Z,5.43
2017-12-17T09:40:16.071Z,5.40
2017-12-17T09:41:18.617Z,5.75
2017-12-17T09:42:21.136Z,5.10
2017-12-17T09:43:23.655Z,5.80
2017-12-17T09:44:26.182Z,5.47
2017-12-17T09:45:28.763Z,5.93
2017-12-17T09:46:31.412Z,5.87
2017-12-17T09:47:33.924Z,5.65
2017-12-17T09:48:36.430Z,5.80
2017-12-17T09:49:39.010Z,5.97
2017-12-17T09:50:41.522Z,5.97
2017-12-17T09:51:44.084Z,6.50
2017-12-17T09:52:46.603Z,5.87
2017-12-17T09:53:49.117Z,6.05
2017-12-17T09:54:51.672Z,6.18
2017-12-17T09:55:54.182Z,5.80
2017-12-17T09:56:57.520Z,6.07
2017-12-17T09:58:00.037Z,6.10
2017-12-17T09:59:03.342Z,6.25
2017-12-17T10:00:05.894Z,5.43
2017-12-17T10:01:08.420Z,6.93
2017-12-17T10:02:10.997Z,6.62
2017-12-17T10:03:13.511Z,5.65
2017-12-17T10:04:16.026Z,6.72
2017-12-17T10:05:18.546Z,6.03
2017-12-17T10:06:21.109Z,6.05
2017-12-17T10:07:23.622Z,5.65
2017-12-17T10:08:26.162Z,4.95
2017-12-17T10:09:28.671Z,5.30
2017-12-17T10:10:31.950Z,5.20
2017-12-17T10:11:34.525Z,6.62
2017-12-17T10:12:37.805Z,6.30
2017-12-17T10:13:41.119Z,5.80
2017-12-17T10:14:43.629Z,5.72
2017-12-17T10:15:46.172Z,5.05
2017-12-17T10:16:48.690Z,6.00
2017-12-17T10:17:51.970Z,6.10
2017-12-17T10:18:55.288Z,6.03
2017-12-17T10:19:57.804Z,5.70
2017-12-17T10:21:00.325Z,4.95
2017-12-17T10:22:02.893Z,5.07
2017-12-17T10:23:05.406Z,4.57
2017-12-17T10:24:08.030Z,5.35
2017-12-17T10:25:10.549Z,4.60
2017-12-17T10:26:13.869Z,5.47
2017-12-17T10:27:16.416Z,5.22
2017-12-17T10:28:19.722Z,5.20
2017-12-17T10:29:22.250Z,4.50
2017-12-17T10:30:25.544Z,4.57
2017-12-17T10:31:28.852Z,4.22
2017-12-17T10:32:31.417Z,3.65
2017-12-17T10:33:33.974Z,4.35
2017-12-17T10:34:36.493Z,3.12
2017-12-17T10:35:39.002Z,3.85
2017-12-17T10:36:41.538Z,3.65
2017-12-17T10:37:44.049Z,3.47
2017-12-17T10:38:46.606Z,3.58
2017-12-17T10:39:49.122Z,3.10
2017-12-17T10:40:51.642Z,3.55
2017-12-17T10:41:54.158Z,3.70
2017-12-17T10:42:56.665Z,3.37
2017-12-17T10:43:59.206Z,3.47
2017-12-17T10:45:01.717Z,3.20
2017-12-17T10:46:04.247Z,3.90
2017-12-17T10:47:07.533Z,2.85
2017-12-17T10:48:10.860Z,2.70
2017-12-17T10:49:13.380Z,3.67
2017-12-17T10:50:16.656Z,3.30
2017-12-17T10:51:19.935Z,3.53
2017-12-17T10:52:22.490Z,2.83
2017-12-17T10:53:25.001Z,2.67
2017-12-17T10:54:27.523Z,3.10
2017-12-17T10:55:30.031Z,2.60
2017-12-17T10:56:32.647Z,3.50
2017-12-17T10:57:35.149Z,2.97
2017-12-17T10:58:38.429Z,3.17
2017-12-17T10:59:41.713Z,2.92
2017-12-17T11:00:44.994Z,2.70
2017-12-17T11:01:48.405Z,2.70
2017-12-17T11:02:50.952Z,2.78
2017-12-17T11:03:54.231Z,3.12
2017-12-17T11:04:57.580Z,3.10
2017-12-17T11:06:00.091Z,3.60
2017-12-17T11:07:02.621Z,4.35
2017-12-17T11:08:05.138Z,3.62
2017-12-17T11:09:07.660Z,3.45
2017-12-17T11:10:10.214Z,3.33
2017-12-17T11:11:12.730Z,3.35
2017-12-17T11:12:15.248Z,3.83
2017-12-17T11:13:17.757Z,3.30
2017-12-17T11:14:20.270Z,2.97
2017-12-17T11:15:22.913Z,3.67
2017-12-17T11:16:25.555Z,3.33
2017-12-17T11:17:28.067Z,3.95
2017-12-17T11:18:30.606Z,3.00
2017-12-17T11:19:33.129Z,3.30
2017-12-17T11:20:35.681Z,4.20
2017-12-17T11:21:38.225Z,3.47
2017-12-17T11:22:40.747Z,2.90
2017-12-17T11:23:44.025Z,3.47
2017-12-17T11:24:47.309Z,3.45
2017-12-17T11:25:50.600Z,3.97
2017-12-17T11:26:53.169Z,3.28
2017-12-17T11:27:55.725Z,3.00
2017-12-17T11:28:59.007Z,3.08
2017-12-17T11:30:02.277Z,3.78
2017-12-17T11:31:04.793Z,3.42
2017-12-17T11:32:07.293Z,3.08
2017-12-17T11:33:09.841Z,2.87
2017-12-17T11:34:12.391Z,3.22
2017-12-17T11:35:14.901Z,3.40
2017-12-17T11:36:17.419Z,3.05
2017-12-17T11:37:19.925Z,3.67
2017-12-17T11:38:22.489Z,3.40
2017-12-17T11:39:24.998Z,3.08
2017-12-17T11:40:27.569Z,3.20
2017-12-17T11:41:30.091Z,3.17
2017-12-17T11:42:32.623Z,3.00
2017-12-17T11:43:35.185Z,3.22
2017-12-17T11:44:37.697Z,2.80
2017-12-17T11:45:40.240Z,2.97
2017-12-17T11:46:42.782Z,2.90
2017-12-17T11:47:45.320Z,3.10
2017-12-17T11:48:47.838Z,3.53
2017-12-17T11:49:50.361Z,3.00
2017-12-17T11:50:52.889Z,3.30
2017-12-17T11:51:56.186Z,3.17
2017-12-17T11:52:59.513Z,3.37
2017-12-17T11:54:02.021Z,3.00
2017-12-17T11:55:04.529Z,3.20
2017-12-17T11:56:07.038Z,3.15
2017-12-17T11:57:09.560Z,2.87
2017-12-17T11:58:12.275Z,2.45
2017-12-17T11:59:14.785Z,3.47
2017-12-17T12:00:17.298Z,2.87
2017-12-17T12:01:19.813Z,3.08
2017-12-17T12:02:22.324Z,2.92
2017-12-17T12:03:24.865Z,2.80
2017-12-17T12:04:27.381Z,2.55
2017-12-17T12:05:29.911Z,2.70
2017-12-17T12:06:32.428Z,2.17
2017-12-17T12:07:35.750Z,2.72
2017-12-17T12:08:38.257Z,3.25
2017-12-17T12:09:40.778Z,2.47
2017-12-17T12:10:43.289Z,2.10
2017-12-17T12:11:45.796Z,2.22
2017-12-17T12:12:48.350Z,2.30
2017-12-17T12:13:51.653Z,2.20
2017-12-17T12:14:54.165Z,2.42
2017-12-17T12:15:56.673Z,1.60
2017-12-17T12:16:59.213Z,1.92
2017-12-17T12:18:01.765Z,1.90
2017-12-17T12:19:04.285Z,1.83
2017-12-17T12:20:07.006Z,1.90
2017-12-17T12:21:09.522Z,1.60
2017-12-17T12:22:12.035Z,1.70
2017-12-17T12:23:14.576Z,1.60
2017-12-17T12:24:17.121Z,2.20
2017-12-17T12:25:19.677Z,1.80
2017-12-17T12:26:22.194Z,1.92
2017-12-17T12:27:24.713Z,1.80
2017-12-17T12:28:27.237Z,1.70
2017-12-17T12:29:29.753Z,1.60
2017-12-17T12:30:32.306Z,1.23
2017-12-17T12:31:34.863Z,1.25
2017-12-17T12:32:38.138Z,1.55
2017-12-17T12:33:41.437Z,2.05
2017-12-17T12:34:43.958Z,1.73
2017-12-17T12:35:46.485Z,1.98
2017-12-17T12:36:49.024Z,1.85
2017-12-17T12:37:52.314Z,1.70
2017-12-17T12:38:54.825Z,2.05
2017-12-17T12:39:57.344Z,1.65
2017-12-17T12:40:59.899Z,2.03
2017-12-17T12:42:03.176Z,2.22
2017-12-17T12:43:06.492Z,1.58
2017-12-17T12:44:09.021Z,1.42
2017-12-17T12:45:11.529Z,1.58
2017-12-17T12:46:14.138Z,1.80
2017-12-17T12:47:16.658Z,1.00
2017-12-17T12:48:19.169Z,1.40
2017-12-17T12:49:21.691Z,1.60
2017-12-17T12:50:24.207Z,1.50
2017-12-17T12:51:26.750Z,1.52
2017-12-17T12:52:29.261Z,1.60
2017-12-17T12:53:32.549Z,1.60
2017-12-17T12:54:35.847Z,2.00
2017-12-17T12:55:38.372Z,1.98
2017-12-17T12:56:40.920Z,2.03
2017-12-17T12:57:43.432Z,2.58
2017-12-17T12:58:46.714Z,2.45
2017-12-17T12:59:49.996Z,2.33
2017-12-17T13:00:53.296Z,2.30
2017-12-17T13:01:55.854Z,2.28
2017-12-17T13:02:58.365Z,2.20
2017-12-17T13:04:00.905Z,2.50
2017-12-17T13:05:03.408Z,2.45
2017-12-17T13:06:05.952Z,2.70
2017-12-17T13:07:08.470Z,2.35
2017-12-17T13:08:11.754Z,2.30
2017-12-17T13:09:15.061Z,2.15
2017-12-17T13:10:17.691Z,3.58
2017-12-17T13:11:20.209Z,2.20
2017-12-17T13:12:22.713Z,1.80
2017-12-17T13:13:25.223Z,2.00
2017-12-17T13:14:27.782Z,2.28
2017-12-17T13:15:30.302Z,1.90
2017-12-17T13:16:32.822Z,1.70
2017-12-17T13:17:35.338Z,1.95
2017-12-17T13:18:37.880Z,1.80
2017-12-17T13:19:40.397Z,1.70
2017-12-17T13:20:43.673Z,1.50
2017-12-17T13:21:46.996Z,1.95
2017-12-17T13:22:49.501Z,2.10
2017-12-17T13:23:52.013Z,2.37
2017-12-17T13:24:54.553Z,2.55
2017-12-17T13:25:57.074Z,3.15
2017-12-17T13:26:59.582Z,3.08
2017-12-17T13:28:02.112Z,2.60
2017-12-17T13:29:04.633Z,3.03
2017-12-17T13:30:07.966Z,3.00
2017-12-17T13:31:10.485Z,3.03
2017-12-17T13:32:13.772Z,3.30
2017-12-17T13:33:16.290Z,3.20
2017-12-17T13:34:18.828Z,2.90
2017-12-17T13:35:21.378Z,3.20
2017-12-17T13:36:23.950Z,3.17
2017-12-17T13:37:26.531Z,3.08
2017-12-17T13:38:29.037Z,4.87
2017-12-17T13:39:31.590Z,3.90
2017-12-17T13:40:34.111Z,3.50
2017-12-17T13:41:36.648Z,3.10
2017-12-17T13:42:39.927Z,3.53
2017-12-17T13:43:42.481Z,3.40
2017-12-17T13:44:44.988Z,3.22
2017-12-17T13:45:47.510Z,3.65
2017-12-17T13:46:50.044Z,3.22
2017-12-17T13:47:52.554Z,3.35
2017-12-17T13:48:55.120Z,3.72
2017-12-17T13:49:57.633Z,3.42
2017-12-17T13:51:00.229Z,3.05
2017-12-17T13:52:02.736Z,3.40
2017-12-17T13:53:06.014Z,3.00
2017-12-17T13:54:09.325Z,2.95
2017-12-17T13:55:11.883Z,2.83
2017-12-17T13:56:14.396Z,2.40
2017-12-17T13:57:16.944Z,3.15